Terminal Aerodrome Forecast
Issued by NWS

Home | Current Version | Previous Version | Text Only | Print | Product List | Glossary On
Versions: 1 2 3 4 5 6 7 8 9 10 11 12 13 14 15 16 17 18 19 20 21 22 23 24 25 26 27 28 29 30 31 32 33 34 35 36 37 38
140
FTUS45 KSLC 230530
TAF36U
TAF
K36U 230530Z 2306/2406 20010KT P6SM -SHRA SCT020 BKN050
     FM230900 VRB04KT 6SM -RA SCT020 BKN035
     FM231800 36008KT P6SM VCSH SCT040 BKN080
     FM240200 VRB04KT P6SM SCT080 SCT120=

USA.gov is the U.S. government's official web portal to all federal, state and local government web resources and services.